sensor_id;sensor_type;location;lat;lon;timestamp;P1;durP1;ratioP1;P2;durP2;ratioP2
18296;SDS011;18066;52.106;5.534;2022-07-23T00:01:08;2.50;;;2.28;;
18296;SDS011;18066;52.106;5.534;2022-07-23T00:03:35;3.17;;;2.53;;
18296;SDS011;18066;52.106;5.534;2022-07-23T00:06:02;4.88;;;2.88;;
18296;SDS011;18066;52.106;5.534;2022-07-23T00:08:30;4.65;;;2.90;;
18296;SDS011;18066;52.106;5.534;2022-07-23T00:10:56;4.85;;;2.67;;
18296;SDS011;18066;52.106;5.534;2022-07-23T00:13:23;5.13;;;2.80;;
18296;SDS011;18066;52.106;5.534;2022-07-23T00:15:50;5.90;;;3.08;;
18296;SDS011;18066;52.106;5.534;2022-07-23T00:18:17;3.00;;;2.70;;
18296;SDS011;18066;52.106;5.534;2022-07-23T00:20:43;3.92;;;3.08;;
18296;SDS011;18066;52.106;5.534;2022-07-23T00:23:10;4.97;;;2.95;;
18296;SDS011;18066;52.106;5.534;2022-07-23T00:25:38;4.45;;;3.22;;
18296;SDS011;18066;52.106;5.534;2022-07-23T00:28:05;4.63;;;3.05;;
18296;SDS011;18066;52.106;5.534;2022-07-23T00:30:32;3.67;;;2.60;;
18296;SDS011;18066;52.106;5.534;2022-07-23T00:33:00;2.67;;;2.47;;
18296;SDS011;18066;52.106;5.534;2022-07-23T00:35:29;5.00;;;3.10;;
18296;SDS011;18066;52.106;5.534;2022-07-23T00:37:57;4.78;;;2.58;;
18296;SDS011;18066;52.106;5.534;2022-07-23T00:40:24;3.85;;;2.63;;
18296;SDS011;18066;52.106;5.534;2022-07-23T00:42:53;2.95;;;2.72;;
18296;SDS011;18066;52.106;5.534;2022-07-23T00:45:20;2.97;;;2.67;;
18296;SDS011;18066;52.106;5.534;2022-07-23T00:47:47;3.13;;;2.78;;
18296;SDS011;18066;52.106;5.534;2022-07-23T00:50:14;2.85;;;2.55;;
18296;SDS011;18066;52.106;5.534;2022-07-23T00:52:41;3.42;;;2.53;;
18296;SDS011;18066;52.106;5.534;2022-07-23T00:55:08;4.18;;;2.58;;
18296;SDS011;18066;52.106;5.534;2022-07-23T00:57:36;4.28;;;3.08;;
18296;SDS011;18066;52.106;5.534;2022-07-23T01:00:05;3.58;;;3.20;;
18296;SDS011;18066;52.106;5.534;2022-07-23T01:02:34;4.18;;;2.80;;
18296;SDS011;18066;52.106;5.534;2022-07-23T01:05:01;3.35;;;2.78;;
18296;SDS011;18066;52.106;5.534;2022-07-23T01:07:28;3.67;;;2.40;;
18296;SDS011;18066;52.106;5.534;2022-07-23T01:09:55;4.65;;;3.42;;
18296;SDS011;18066;52.106;5.534;2022-07-23T01:12:22;3.63;;;2.90;;
18296;SDS011;18066;52.106;5.534;2022-07-23T01:14:53;3.30;;;2.97;;
18296;SDS011;18066;52.106;5.534;2022-07-23T01:17:22;5.10;;;3.60;;
18296;SDS011;18066;52.106;5.534;2022-07-23T01:19:48;5.15;;;3.10;;
18296;SDS011;18066;52.106;5.534;2022-07-23T01:22:16;8.38;;;3.47;;
18296;SDS011;18066;52.106;5.534;2022-07-23T01:24:47;5.13;;;4.50;;
18296;SDS011;18066;52.106;5.534;2022-07-23T01:27:13;6.57;;;4.13;;
18296;SDS011;18066;52.106;5.534;2022-07-23T01:29:42;5.82;;;3.58;;
18296;SDS011;18066;52.106;5.534;2022-07-23T01:32:09;6.22;;;3.45;;
18296;SDS011;18066;52.106;5.534;2022-07-23T01:34:35;3.95;;;3.20;;
18296;SDS011;18066;52.106;5.534;2022-07-23T01:37:02;4.57;;;3.05;;
18296;SDS011;18066;52.106;5.534;2022-07-23T01:39:29;3.45;;;3.15;;
18296;SDS011;18066;52.106;5.534;2022-07-23T01:41:57;4.10;;;2.88;;
18296;SDS011;18066;52.106;5.534;2022-07-23T01:44:24;3.83;;;2.90;;
18296;SDS011;18066;52.106;5.534;2022-07-23T01:46:50;2.60;;;2.40;;
18296;SDS011;18066;52.106;5.534;2022-07-23T01:49:17;4.03;;;2.65;;
18296;SDS011;18066;52.106;5.534;2022-07-23T01:51:44;3.38;;;3.08;;
18296;SDS011;18066;52.106;5.534;2022-07-23T01:54:39;5.07;;;3.15;;
18296;SDS011;18066;52.106;5.534;2022-07-23T01:57:06;3.80;;;3.03;;
18296;SDS011;18066;52.106;5.534;2022-07-23T01:59:33;6.10;;;3.65;;
18296;SDS011;18066;52.106;5.534;2022-07-23T02:02:00;4.95;;;3.17;;
18296;SDS011;18066;52.106;5.534;2022-07-23T02:04:28;3.65;;;2.85;;
18296;SDS011;18066;52.106;5.534;2022-07-23T02:06:55;3.53;;;2.80;;
18296;SDS011;18066;52.106;5.534;2022-07-23T02:09:21;4.53;;;3.30;;
18296;SDS011;18066;52.106;5.534;2022-07-23T02:11:49;4.20;;;3.15;;
18296;SDS011;18066;52.106;5.534;2022-07-23T02:14:16;3.22;;;2.75;;
18296;SDS011;18066;52.106;5.534;2022-07-23T02:16:43;3.67;;;3.28;;
18296;SDS011;18066;52.106;5.534;2022-07-23T02:19:09;3.78;;;3.05;;
18296;SDS011;18066;52.106;5.534;2022-07-23T02:21:36;3.75;;;3.20;;
18296;SDS011;18066;52.106;5.534;2022-07-23T02:24:03;3.53;;;2.55;;
18296;SDS011;18066;52.106;5.534;2022-07-23T02:26:31;3.17;;;2.25;;
18296;SDS011;18066;52.106;5.534;2022-07-23T02:29:01;1.75;;;1.65;;
18296;SDS011;18066;52.106;5.534;2022-07-23T02:31:28;2.95;;;2.65;;
18296;SDS011;18066;52.106;5.534;2022-07-23T02:33:55;2.97;;;1.90;;
18296;SDS011;18066;52.106;5.534;2022-07-23T02:36:23;2.13;;;1.80;;
18296;SDS011;18066;52.106;5.534;2022-07-23T02:38:50;1.73;;;1.30;;
18296;SDS011;18066;52.106;5.534;2022-07-23T02:41:16;1.30;;;1.20;;
18296;SDS011;18066;52.106;5.534;2022-07-23T02:43:43;1.85;;;1.75;;
18296;SDS011;18066;52.106;5.534;2022-07-23T02:46:11;2.33;;;1.90;;
18296;SDS011;18066;52.106;5.534;2022-07-23T02:48:38;2.78;;;1.30;;
18296;SDS011;18066;52.106;5.534;2022-07-23T02:51:04;1.60;;;1.50;;
18296;SDS011;18066;52.106;5.534;2022-07-23T02:53:31;2.17;;;1.60;;
18296;SDS011;18066;52.106;5.534;2022-07-23T02:55:58;2.22;;;2.03;;
18296;SDS011;18066;52.106;5.534;2022-07-23T02:58:24;2.25;;;1.73;;
18296;SDS011;18066;52.106;5.534;2022-07-23T03:00:51;2.00;;;1.80;;
18296;SDS011;18066;52.106;5.534;2022-07-23T03:03:20;3.38;;;2.53;;
18296;SDS011;18066;52.106;5.534;2022-07-23T03:05:46;2.60;;;1.55;;
18296;SDS011;18066;52.106;5.534;2022-07-23T03:08:13;3.33;;;1.80;;
18296;SDS011;18066;52.106;5.534;2022-07-23T03:10:40;2.50;;;1.83;;
18296;SDS011;18066;52.106;5.534;2022-07-23T03:13:06;2.83;;;1.80;;
18296;SDS011;18066;52.106;5.534;2022-07-23T03:15:33;1.85;;;1.75;;
18296;SDS011;18066;52.106;5.534;2022-07-23T03:18:00;2.30;;;1.70;;
18296;SDS011;18066;52.106;5.534;2022-07-23T03:20:28;2.63;;;1.75;;
18296;SDS011;18066;52.106;5.534;2022-07-23T03:22:55;1.85;;;1.52;;
18296;SDS011;18066;52.106;5.534;2022-07-23T03:25:21;1.83;;;1.58;;
18296;SDS011;18066;52.106;5.534;2022-07-23T03:27:48;1.60;;;1.50;;
18296;SDS011;18066;52.106;5.534;2022-07-23T03:30:15;1.70;;;1.60;;
18296;SDS011;18066;52.106;5.534;2022-07-23T03:32:41;1.97;;;1.40;;
18296;SDS011;18066;52.106;5.534;2022-07-23T03:35:09;1.30;;;1.20;;
18296;SDS011;18066;52.106;5.534;2022-07-23T03:37:37;1.67;;;1.58;;
18296;SDS011;18066;52.106;5.534;2022-07-23T03:40:05;1.50;;;1.40;;
18296;SDS011;18066;52.106;5.534;2022-07-23T03:42:32;1.15;;;1.05;;
18296;SDS011;18066;52.106;5.534;2022-07-23T03:44:59;1.87;;;1.30;;
18296;SDS011;18066;52.106;5.534;2022-07-23T03:47:26;1.65;;;1.30;;
18296;SDS011;18066;52.106;5.534;2022-07-23T03:49:53;2.07;;;1.20;;
18296;SDS011;18066;52.106;5.534;2022-07-23T03:52:20;1.33;;;1.05;;
18296;SDS011;18066;52.106;5.534;2022-07-23T03:54:48;1.33;;;1.23;;
18296;SDS011;18066;52.106;5.534;2022-07-23T03:57:14;0.80;;;0.80;;
18296;SDS011;18066;52.106;5.534;2022-07-23T03:59:41;1.30;;;1.20;;
18296;SDS011;18066;52.106;5.534;2022-07-23T04:02:08;1.20;;;1.00;;
18296;SDS011;18066;52.106;5.534;2022-07-23T04:04:34;2.97;;;1.20;;
18296;SDS011;18066;52.106;5.534;2022-07-23T04:07:01;1.30;;;0.75;;
18296;SDS011;18066;52.106;5.534;2022-07-23T04:09:28;0.93;;;0.90;;
18296;SDS011;18066;52.106;5.534;2022-07-23T04:11:56;1.60;;;1.13;;
18296;SDS011;18066;52.106;5.534;2022-07-23T04:14:23;1.38;;;1.20;;
18296;SDS011;18066;52.106;5.534;2022-07-23T04:16:49;1.40;;;0.80;;
18296;SDS011;18066;52.106;5.534;2022-07-23T04:19:16;1.17;;;1.08;;
18296;SDS011;18066;52.106;5.534;2022-07-23T04:21:43;4.75;;;1.20;;
18296;SDS011;18066;52.106;5.534;2022-07-23T04:24:09;1.27;;;1.17;;
18296;SDS011;18066;52.106;5.534;2022-07-23T04:26:36;1.63;;;1.30;;
18296;SDS011;18066;52.106;5.534;2022-07-23T04:29:04;1.27;;;1.17;;
18296;SDS011;18066;52.106;5.534;2022-07-23T04:31:31;1.70;;;1.40;;
18296;SDS011;18066;52.106;5.534;2022-07-23T04:33:57;1.50;;;1.40;;
18296;SDS011;18066;52.106;5.534;2022-07-23T04:36:24;2.93;;;2.00;;
18296;SDS011;18066;52.106;5.534;2022-07-23T04:38:51;1.70;;;1.60;;
18296;SDS011;18066;52.106;5.534;2022-07-23T04:41:17;1.98;;;1.48;;
18296;SDS011;18066;52.106;5.534;2022-07-23T04:43:44;2.20;;;1.88;;
18296;SDS011;18066;52.106;5.534;2022-07-23T04:46:13;2.22;;;1.67;;
18296;SDS011;18066;52.106;5.534;2022-07-23T04:48:39;2.17;;;1.60;;
18296;SDS011;18066;52.106;5.534;2022-07-23T04:51:07;1.52;;;1.42;;
18296;SDS011;18066;52.106;5.534;2022-07-23T04:53:34;1.40;;;1.30;;
18296;SDS011;18066;52.106;5.534;2022-07-23T04:56:02;4.88;;;2.15;;
18296;SDS011;18066;52.106;5.534;2022-07-23T04:58:29;2.13;;;1.92;;
18296;SDS011;18066;52.106;5.534;2022-07-23T05:00:56;3.55;;;2.10;;
18296;SDS011;18066;52.106;5.534;2022-07-23T05:03:25;3.05;;;2.47;;
18296;SDS011;18066;52.106;5.534;2022-07-23T05:05:51;3.72;;;2.80;;
18296;SDS011;18066;52.106;5.534;2022-07-23T05:08:18;5.90;;;3.50;;
18296;SDS011;18066;52.106;5.534;2022-07-23T05:10:45;5.30;;;3.50;;
18296;SDS011;18066;52.106;5.534;2022-07-23T05:13:12;3.17;;;2.88;;
18296;SDS011;18066;52.106;5.534;2022-07-23T05:15:40;3.85;;;3.00;;
18296;SDS011;18066;52.106;5.534;2022-07-23T05:18:07;3.28;;;2.97;;
18296;SDS011;18066;52.106;5.534;2022-07-23T05:20:35;2.97;;;2.78;;
18296;SDS011;18066;52.106;5.534;2022-07-23T05:23:02;3.15;;;2.85;;
18296;SDS011;18066;52.106;5.534;2022-07-23T05:25:29;3.17;;;2.58;;
18296;SDS011;18066;52.106;5.534;2022-07-23T05:27:55;3.10;;;2.80;;
18296;SDS011;18066;52.106;5.534;2022-07-23T05:30:23;6.30;;;3.50;;
18296;SDS011;18066;52.106;5.534;2022-07-23T05:32:50;3.88;;;3.38;;
18296;SDS011;18066;52.106;5.534;2022-07-23T05:35:16;5.35;;;3.22;;
18296;SDS011;18066;52.106;5.534;2022-07-23T05:37:44;3.92;;;3.10;;
18296;SDS011;18066;52.106;5.534;2022-07-23T05:40:11;4.95;;;3.22;;
18296;SDS011;18066;52.106;5.534;2022-07-23T05:42:39;8.85;;;3.95;;
18296;SDS011;18066;52.106;5.534;2022-07-23T05:45:07;4.60;;;3.83;;
18296;SDS011;18066;52.106;5.534;2022-07-23T05:47:42;5.57;;;3.83;;
18296;SDS011;18066;52.106;5.534;2022-07-23T05:50:09;8.80;;;4.75;;
18296;SDS011;18066;52.106;5.534;2022-07-23T05:52:37;8.05;;;3.92;;
18296;SDS011;18066;52.106;5.534;2022-07-23T05:55:05;7.57;;;4.18;;
18296;SDS011;18066;52.106;5.534;2022-07-23T05:57:32;11.20;;;4.53;;
18296;SDS011;18066;52.106;5.534;2022-07-23T05:59:59;10.75;;;4.00;;
18296;SDS011;18066;52.106;5.534;2022-07-23T06:02:26;8.77;;;4.20;;
18296;SDS011;18066;52.106;5.534;2022-07-23T06:04:53;6.15;;;3.60;;
18296;SDS011;18066;52.106;5.534;2022-07-23T06:07:19;9.32;;;4.05;;
18296;SDS011;18066;52.106;5.534;2022-07-23T06:09:46;6.60;;;3.60;;
18296;SDS011;18066;52.106;5.534;2022-07-23T06:12:15;8.25;;;3.08;;
18296;SDS011;18066;52.106;5.534;2022-07-23T06:14:42;9.05;;;4.15;;
18296;SDS011;18066;52.106;5.534;2022-07-23T06:17:08;6.13;;;3.08;;
18296;SDS011;18066;52.106;5.534;2022-07-23T06:19:36;5.72;;;3.72;;
18296;SDS011;18066;52.106;5.534;2022-07-23T06:22:02;3.53;;;3.10;;
18296;SDS011;18066;52.106;5.534;2022-07-23T06:24:29;4.82;;;3.15;;
18296;SDS011;18066;52.106;5.534;2022-07-23T06:26:56;3.03;;;2.67;;
18296;SDS011;18066;52.106;5.534;2022-07-23T06:29:24;6.30;;;2.80;;
18296;SDS011;18066;52.106;5.534;2022-07-23T06:31:50;4.47;;;2.70;;
18296;SDS011;18066;52.106;5.534;2022-07-23T06:34:17;3.63;;;3.10;;
18296;SDS011;18066;52.106;5.534;2022-07-23T06:36:44;4.20;;;3.00;;
18296;SDS011;18066;52.106;5.534;2022-07-23T06:39:10;4.13;;;2.03;;
18296;SDS011;18066;52.106;5.534;2022-07-23T06:41:37;2.80;;;2.35;;
18296;SDS011;18066;52.106;5.534;2022-07-23T06:44:04;4.82;;;2.58;;
18296;SDS011;18066;52.106;5.534;2022-07-23T06:46:32;2.65;;;2.40;;
18296;SDS011;18066;52.106;5.534;2022-07-23T06:48:59;4.20;;;2.65;;
18296;SDS011;18066;52.106;5.534;2022-07-23T06:51:25;3.53;;;2.28;;
18296;SDS011;18066;52.106;5.534;2022-07-23T06:53:52;5.40;;;3.13;;
18296;SDS011;18066;52.106;5.534;2022-07-23T06:56:19;5.38;;;2.80;;
18296;SDS011;18066;52.106;5.534;2022-07-23T06:58:45;4.78;;;2.95;;
18296;SDS011;18066;52.106;5.534;2022-07-23T07:01:12;5.07;;;2.55;;
18296;SDS011;18066;52.106;5.534;2022-07-23T07:03:40;4.18;;;2.20;;
18296;SDS011;18066;52.106;5.534;2022-07-23T07:06:07;6.47;;;2.28;;
18296;SDS011;18066;52.106;5.534;2022-07-23T07:08:35;2.15;;;1.52;;
18296;SDS011;18066;52.106;5.534;2022-07-23T07:11:02;4.13;;;1.83;;
18296;SDS011;18066;52.106;5.534;2022-07-23T07:13:29;4.20;;;2.20;;
18296;SDS011;18066;52.106;5.534;2022-07-23T07:15:56;3.55;;;2.22;;
18296;SDS011;18066;52.106;5.534;2022-07-23T07:18:22;3.00;;;2.13;;
18296;SDS011;18066;52.106;5.534;2022-07-23T07:20:50;5.28;;;2.58;;
18296;SDS011;18066;52.106;5.534;2022-07-23T07:23:17;4.45;;;2.10;;
18296;SDS011;18066;52.106;5.534;2022-07-23T07:25:45;2.92;;;2.33;;
18296;SDS011;18066;52.106;5.534;2022-07-23T07:28:12;1.67;;;1.58;;
18296;SDS011;18066;52.106;5.534;2022-07-23T07:30:38;2.58;;;1.40;;
18296;SDS011;18066;52.106;5.534;2022-07-23T07:33:05;5.13;;;1.90;;
18296;SDS011;18066;52.106;5.534;2022-07-23T07:35:32;1.15;;;1.05;;
18296;SDS011;18066;52.106;5.534;2022-07-23T07:38:00;2.00;;;1.73;;
18296;SDS011;18066;52.106;5.534;2022-07-23T07:40:27;4.45;;;2.40;;
18296;SDS011;18066;52.106;5.534;2022-07-23T07:42:54;3.50;;;1.70;;
18296;SDS011;18066;52.106;5.534;2022-07-23T07:45:22;3.50;;;1.63;;
18296;SDS011;18066;52.106;5.534;2022-07-23T07:47:49;4.13;;;2.13;;
18296;SDS011;18066;52.106;5.534;2022-07-23T07:50:16;4.63;;;3.20;;
18296;SDS011;18066;52.106;5.534;2022-07-23T07:52:43;3.30;;;2.08;;
18296;SDS011;18066;52.106;5.534;2022-07-23T07:55:11;2.80;;;2.13;;
18296;SDS011;18066;52.106;5.534;2022-07-23T07:57:38;3.45;;;2.00;;
18296;SDS011;18066;52.106;5.534;2022-07-23T08:00:06;3.65;;;2.38;;
18296;SDS011;18066;52.106;5.534;2022-07-23T08:02:41;6.90;;;2.70;;
18296;SDS011;18066;52.106;5.534;2022-07-23T08:05:10;4.90;;;2.38;;
18296;SDS011;18066;52.106;5.534;2022-07-23T08:07:37;3.42;;;2.42;;
18296;SDS011;18066;52.106;5.534;2022-07-23T08:10:05;3.35;;;2.20;;
18296;SDS011;18066;52.106;5.534;2022-07-23T08:12:41;3.88;;;2.65;;
18296;SDS011;18066;52.106;5.534;2022-07-23T08:15:10;3.60;;;2.85;;
18296;SDS011;18066;52.106;5.534;2022-07-23T08:17:38;3.30;;;2.63;;
18296;SDS011;18066;52.106;5.534;2022-07-23T08:20:05;4.90;;;2.70;;
18296;SDS011;18066;52.106;5.534;2022-07-23T08:22:42;4.30;;;2.72;;
18296;SDS011;18066;52.106;5.534;2022-07-23T08:25:13;3.55;;;2.65;;
18296;SDS011;18066;52.106;5.534;2022-07-23T08:27:42;3.83;;;2.90;;
18296;SDS011;18066;52.106;5.534;2022-07-23T08:30:09;4.03;;;2.30;;
18296;SDS011;18066;52.106;5.534;2022-07-23T08:32:49;5.82;;;3.33;;
18296;SDS011;18066;52.106;5.534;2022-07-23T08:35:21;3.00;;;2.35;;
18296;SDS011;18066;52.106;5.534;2022-07-23T08:37:50;3.05;;;2.00;;
18296;SDS011;18066;52.106;5.534;2022-07-23T08:40:16;3.25;;;1.83;;
18296;SDS011;18066;52.106;5.534;2022-07-23T08:42:45;2.00;;;1.80;;
18296;SDS011;18066;52.106;5.534;2022-07-23T08:45:15;3.55;;;1.70;;
18296;SDS011;18066;52.106;5.534;2022-07-23T08:47:43;4.15;;;1.83;;
18296;SDS011;18066;52.106;5.534;2022-07-23T08:50:10;3.90;;;1.77;;
18296;SDS011;18066;52.106;5.534;2022-07-23T08:52:37;1.83;;;1.48;;
18296;SDS011;18066;52.106;5.534;2022-07-23T08:55:05;3.80;;;1.85;;
18296;SDS011;18066;52.106;5.534;2022-07-23T08:57:33;2.88;;;2.15;;
18296;SDS011;18066;52.106;5.534;2022-07-23T09:00:01;3.13;;;1.67;;
18296;SDS011;18066;52.106;5.534;2022-07-23T09:02:28;3.25;;;1.95;;
18296;SDS011;18066;52.106;5.534;2022-07-23T09:04:55;2.90;;;1.65;;
18296;SDS011;18066;52.106;5.534;2022-07-23T09:07:21;2.35;;;1.65;;
18296;SDS011;18066;52.106;5.534;2022-07-23T09:09:50;4.22;;;1.95;;
18296;SDS011;18066;52.106;5.534;2022-07-23T09:12:32;7.38;;;3.00;;
18296;SDS011;18066;52.106;5.534;2022-07-23T09:15:04;2.67;;;1.65;;
18296;SDS011;18066;52.106;5.534;2022-07-23T09:17:39;2.58;;;1.60;;
18296;SDS011;18066;52.106;5.534;2022-07-23T09:20:07;4.82;;;2.05;;
18296;SDS011;18066;52.106;5.534;2022-07-23T09:22:35;2.92;;;1.90;;
18296;SDS011;18066;52.106;5.534;2022-07-23T09:25:03;2.83;;;1.50;;
18296;SDS011;18066;52.106;5.534;2022-07-23T09:27:45;4.57;;;2.00;;
18296;SDS011;18066;52.106;5.534;2022-07-23T09:30:15;2.95;;;1.73;;
18296;SDS011;18066;52.106;5.534;2022-07-23T09:32:42;4.10;;;1.67;;
18296;SDS011;18066;52.106;5.534;2022-07-23T09:35:09;2.65;;;1.88;;
18296;SDS011;18066;52.106;5.534;2022-07-23T09:37:36;3.00;;;2.00;;
18296;SDS011;18066;52.106;5.534;2022-07-23T09:40:03;3.40;;;2.22;;
18296;SDS011;18066;52.106;5.534;2022-07-23T09:42:31;5.32;;;2.20;;
18296;SDS011;18066;52.106;5.534;2022-07-23T09:44:58;3.92;;;1.75;;
18296;SDS011;18066;52.106;5.534;2022-07-23T09:47:27;5.28;;;1.88;;
18296;SDS011;18066;52.106;5.534;2022-07-23T09:49:59;2.45;;;1.50;;
18296;SDS011;18066;52.106;5.534;2022-07-23T09:52:27;4.18;;;1.50;;
18296;SDS011;18066;52.106;5.534;2022-07-23T09:54:58;1.83;;;1.60;;
18296;SDS011;18066;52.106;5.534;2022-07-23T09:57:26;2.42;;;1.50;;
18296;SDS011;18066;52.106;5.534;2022-07-23T09:59:53;4.60;;;1.83;;
18296;SDS011;18066;52.106;5.534;2022-07-23T10:02:27;2.13;;;1.48;;
18296;SDS011;18066;52.106;5.534;2022-07-23T10:04:54;2.88;;;1.80;;
18296;SDS011;18066;52.106;5.534;2022-07-23T10:07:22;4.38;;;1.70;;
18296;SDS011;18066;52.106;5.534;2022-07-23T10:09:50;2.55;;;2.05;;
18296;SDS011;18066;52.106;5.534;2022-07-23T10:12:18;2.78;;;1.80;;
18296;SDS011;18066;52.106;5.534;2022-07-23T10:14:59;4.65;;;2.00;;
18296;SDS011;18066;52.106;5.534;2022-07-23T10:17:28;3.20;;;1.50;;
18296;SDS011;18066;52.106;5.534;2022-07-23T10:19:55;3.55;;;1.40;;
18296;SDS011;18066;52.106;5.534;2022-07-23T10:22:22;2.15;;;1.70;;
18296;SDS011;18066;52.106;5.534;2022-07-23T10:24:59;3.35;;;1.58;;
18296;SDS011;18066;52.106;5.534;2022-07-23T10:27:44;4.25;;;1.42;;
18296;SDS011;18066;52.106;5.534;2022-07-23T10:30:34;2.50;;;1.85;;
18296;SDS011;18066;52.106;5.534;2022-07-23T10:33:15;1.65;;;1.55;;
18296;SDS011;18066;52.106;5.534;2022-07-23T10:35:52;2.45;;;1.25;;
18296;SDS011;18066;52.106;5.534;2022-07-23T10:38:27;3.13;;;1.52;;
18296;SDS011;18066;52.106;5.534;2022-07-23T10:40:57;3.67;;;1.52;;
18296;SDS011;18066;52.106;5.534;2022-07-23T10:43:25;3.38;;;1.92;;
18296;SDS011;18066;52.106;5.534;2022-07-23T10:45:52;4.18;;;2.08;;
18296;SDS011;18066;52.106;5.534;2022-07-23T10:48:21;4.15;;;1.67;;
18296;SDS011;18066;52.106;5.534;2022-07-23T10:51:06;3.50;;;1.60;;
18296;SDS011;18066;52.106;5.534;2022-07-23T10:53:53;3.58;;;1.73;;
18296;SDS011;18066;52.106;5.534;2022-07-23T10:59:31;2.70;;;2.08;;
18296;SDS011;18066;52.106;5.534;2022-07-23T11:02:20;2.20;;;1.85;;
18296;SDS011;18066;52.106;5.534;2022-07-23T11:04:50;4.70;;;2.38;;
18296;SDS011;18066;52.106;5.534;2022-07-23T11:07:18;2.65;;;1.85;;
18296;SDS011;18066;52.106;5.534;2022-07-23T11:09:45;2.63;;;1.75;;
18296;SDS011;18066;52.106;5.534;2022-07-23T11:15:02;4.47;;;1.67;;
18296;SDS011;18066;52.106;5.534;2022-07-23T11:17:31;1.85;;;1.30;;
18296;SDS011;18066;52.106;5.534;2022-07-23T11:20:20;3.15;;;1.38;;
18296;SDS011;18066;52.106;5.534;2022-07-23T11:22:49;2.15;;;1.50;;
18296;SDS011;18066;52.106;5.534;2022-07-23T11:25:31;1.85;;;1.70;;
18296;SDS011;18066;52.106;5.534;2022-07-23T11:28:08;2.22;;;1.40;;
18296;SDS011;18066;52.106;5.534;2022-07-23T11:30:37;3.75;;;1.52;;
18296;SDS011;18066;52.106;5.534;2022-07-23T11:33:15;3.28;;;1.65;;
18296;SDS011;18066;52.106;5.534;2022-07-23T11:35:46;3.10;;;1.40;;
18296;SDS011;18066;52.106;5.534;2022-07-23T11:38:15;1.40;;;1.10;;
18296;SDS011;18066;52.106;5.534;2022-07-23T11:40:44;3.58;;;1.52;;
18296;SDS011;18066;52.106;5.534;2022-07-23T11:43:13;1.58;;;1.23;;
18296;SDS011;18066;52.106;5.534;2022-07-23T11:45:40;1.80;;;1.55;;
18296;SDS011;18066;52.106;5.534;2022-07-23T11:48:09;2.30;;;1.48;;
18296;SDS011;18066;52.106;5.534;2022-07-23T11:50:43;2.65;;;1.30;;
18296;SDS011;18066;52.106;5.534;2022-07-23T11:53:11;2.50;;;1.38;;
18296;SDS011;18066;52.106;5.534;2022-07-23T11:55:38;1.63;;;1.20;;
18296;SDS011;18066;52.106;5.534;2022-07-23T11:58:05;2.60;;;1.65;;
18296;SDS011;18066;52.106;5.534;2022-07-23T12:00:32;2.88;;;1.75;;
18296;SDS011;18066;52.106;5.534;2022-07-23T12:02:59;6.95;;;1.33;;
18296;SDS011;18066;52.106;5.534;2022-07-23T12:05:29;2.28;;;1.50;;
18296;SDS011;18066;52.106;5.534;2022-07-23T12:07:57;3.35;;;1.77;;
18296;SDS011;18066;52.106;5.534;2022-07-23T12:10:27;1.58;;;1.42;;
18296;SDS011;18066;52.106;5.534;2022-07-23T12:12:55;1.85;;;1.50;;
18296;SDS011;18066;52.106;5.534;2022-07-23T12:15:24;2.20;;;1.60;;
18296;SDS011;18066;52.106;5.534;2022-07-23T12:17:54;5.13;;;1.42;;
18296;SDS011;18066;52.106;5.534;2022-07-23T12:20:21;2.47;;;1.40;;
18296;SDS011;18066;52.106;5.534;2022-07-23T12:22:51;8.43;;;1.80;;
18296;SDS011;18066;52.106;5.534;2022-07-23T12:25:19;7.75;;;1.50;;
18296;SDS011;18066;52.106;5.534;2022-07-23T12:27:59;1.58;;;1.20;;
18296;SDS011;18066;52.106;5.534;2022-07-23T12:30:28;2.60;;;1.55;;
18296;SDS011;18066;52.106;5.534;2022-07-23T12:32:57;1.70;;;1.45;;
18296;SDS011;18066;52.106;5.534;2022-07-23T12:35:29;2.20;;;1.40;;
18296;SDS011;18066;52.106;5.534;2022-07-23T12:37:59;3.28;;;1.50;;
18296;SDS011;18066;52.106;5.534;2022-07-23T12:40:28;3.33;;;1.50;;
18296;SDS011;18066;52.106;5.534;2022-07-23T12:42:57;1.98;;;1.48;;
18296;SDS011;18066;52.106;5.534;2022-07-23T12:45:26;2.00;;;1.50;;
18296;SDS011;18066;52.106;5.534;2022-07-23T12:47:56;1.80;;;1.60;;
18296;SDS011;18066;52.106;5.534;2022-07-23T12:50:32;3.25;;;1.52;;
18296;SDS011;18066;52.106;5.534;2022-07-23T12:53:04;2.83;;;1.50;;
18296;SDS011;18066;52.106;5.534;2022-07-23T12:55:32;2.95;;;1.40;;
18296;SDS011;18066;52.106;5.534;2022-07-23T12:58:04;1.92;;;1.70;;
18296;SDS011;18066;52.106;5.534;2022-07-23T13:00:31;5.55;;;1.60;;
18296;SDS011;18066;52.106;5.534;2022-07-23T13:03:20;4.15;;;1.67;;
18296;SDS011;18066;52.106;5.534;2022-07-23T13:05:50;4.55;;;1.90;;
18296;SDS011;18066;52.106;5.534;2022-07-23T13:08:17;2.95;;;1.52;;
18296;SDS011;18066;52.106;5.534;2022-07-23T13:10:44;3.38;;;1.70;;
18296;SDS011;18066;52.106;5.534;2022-07-23T13:13:14;2.10;;;1.60;;
18296;SDS011;18066;52.106;5.534;2022-07-23T13:15:41;3.30;;;1.83;;
18296;SDS011;18066;52.106;5.534;2022-07-23T13:18:09;3.28;;;1.65;;
18296;SDS011;18066;52.106;5.534;2022-07-23T13:20:35;4.05;;;1.70;;
18296;SDS011;18066;52.106;5.534;2022-07-23T13:23:03;1.75;;;1.52;;
18296;SDS011;18066;52.106;5.534;2022-07-23T13:25:30;1.98;;;1.60;;
18296;SDS011;18066;52.106;5.534;2022-07-23T13:27:57;2.13;;;1.70;;
18296;SDS011;18066;52.106;5.534;2022-07-23T13:30:25;1.88;;;1.55;;
18296;SDS011;18066;52.106;5.534;2022-07-23T13:32:51;2.10;;;1.30;;
18296;SDS011;18066;52.106;5.534;2022-07-23T13:35:18;1.95;;;1.40;;
18296;SDS011;18066;52.106;5.534;2022-07-23T13:37:45;2.08;;;1.50;;
18296;SDS011;18066;52.106;5.534;2022-07-23T13:40:12;2.42;;;1.50;;
18296;SDS011;18066;52.106;5.534;2022-07-23T13:42:39;4.63;;;1.88;;
18296;SDS011;18066;52.106;5.534;2022-07-23T13:45:06;2.40;;;1.52;;
18296;SDS011;18066;52.106;5.534;2022-07-23T13:47:34;3.70;;;1.35;;
18296;SDS011;18066;52.106;5.534;2022-07-23T13:50:01;2.42;;;1.55;;
18296;SDS011;18066;52.106;5.534;2022-07-23T13:52:29;2.60;;;1.55;;
18296;SDS011;18066;52.106;5.534;2022-07-23T13:54:56;2.45;;;1.48;;
18296;SDS011;18066;52.106;5.534;2022-07-23T13:57:23;3.15;;;1.40;;
18296;SDS011;18066;52.106;5.534;2022-07-23T13:59:50;3.90;;;1.70;;
18296;SDS011;18066;52.106;5.534;2022-07-23T14:02:17;2.85;;;1.65;;
18296;SDS011;18066;52.106;5.534;2022-07-23T14:04:45;2.75;;;1.48;;
18296;SDS011;18066;52.106;5.534;2022-07-23T14:07:12;2.72;;;1.60;;
18296;SDS011;18066;52.106;5.534;2022-07-23T14:09:39;2.75;;;1.52;;
18296;SDS011;18066;52.106;5.534;2022-07-23T14:12:05;3.50;;;1.58;;
18296;SDS011;18066;52.106;5.534;2022-07-23T14:14:33;4.20;;;1.50;;
18296;SDS011;18066;52.106;5.534;2022-07-23T14:17:00;4.07;;;1.58;;
18296;SDS011;18066;52.106;5.534;2022-07-23T14:19:27;1.75;;;1.40;;
18296;SDS011;18066;52.106;5.534;2022-07-23T14:21:55;1.58;;;1.10;;
18296;SDS011;18066;52.106;5.534;2022-07-23T14:24:22;2.42;;;1.40;;
18296;SDS011;18066;52.106;5.534;2022-07-23T14:26:49;1.98;;;1.40;;
18296;SDS011;18066;52.106;5.534;2022-07-23T14:29:15;1.35;;;1.15;;
18296;SDS011;18066;52.106;5.534;2022-07-23T14:31:42;2.03;;;1.30;;
18296;SDS011;18066;52.106;5.534;2022-07-23T14:34:09;2.60;;;1.50;;
18296;SDS011;18066;52.106;5.534;2022-07-23T14:36:36;1.77;;;1.30;;
18296;SDS011;18066;52.106;5.534;2022-07-23T14:39:05;3.53;;;1.45;;
18296;SDS011;18066;52.106;5.534;2022-07-23T14:41:33;3.28;;;1.70;;
18296;SDS011;18066;52.106;5.534;2022-07-23T14:44:00;1.67;;;1.48;;
18296;SDS011;18066;52.106;5.534;2022-07-23T14:46:27;2.25;;;1.30;;
18296;SDS011;18066;52.106;5.534;2022-07-23T14:48:54;2.63;;;1.38;;
18296;SDS011;18066;52.106;5.534;2022-07-23T14:51:21;2.80;;;1.50;;
18296;SDS011;18066;52.106;5.534;2022-07-23T14:53:48;3.85;;;1.50;;
18296;SDS011;18066;52.106;5.534;2022-07-23T14:56:16;1.85;;;1.65;;
18296;SDS011;18066;52.106;5.534;2022-07-23T14:58:43;5.47;;;1.67;;
18296;SDS011;18066;52.106;5.534;2022-07-23T15:01:10;1.95;;;1.35;;